Latest Weather Observations for Charles Point

IDD60901

Issued at 7:51 pm CST Friday 4 September 2015 (issued every 10 minutes, with the page automatically refreshed every 10 minutes)

About weather observations | Map of Darwin area stations | Latest observations for Darwin area | Other Formats
Station Details ID: 014031 Name: CHARLES POINT Lat: -12.39 Lon: 130.63 Height: 14.0 m
Data from the previous 72 hours. | See also: Recent months for locations in Northern Territory
Date/Time
CST
Tmp

°C
App
Tmp
°C
Dew
Point
°C
Rel
Hum
%
Delta-T

°C
Wind Press
QNH
hPa
Press
MSL
hPa
Rain
since
9 am
mm
Dir
 
Spd
km/h
Gust
km/h
Spd
kts
Gust
kts
04/07:30pm 28.8 31.9 22.1 67 4.5 NNE 9 13 5 7 1014.5 1014.4 0.0
04/07:00pm 28.8 30.8 21.6 65 4.8 NNE 13 17 7 9 1014.2 1014.1 0.0
04/06:30pm 28.8 29.7 21.6 65 4.8 NNE 19 26 10 14 1013.6 1013.5 0.0
04/06:00pm 29.0 29.7 21.5 64 5.0 NNE 20 28 11 15 1013.4 1013.3 0.0
04/05:30pm 29.1 29.9 21.3 62 5.2 NNE 19 24 10 13 1013.2 1013.1 0.0
04/05:00pm 29.1 30.4 20.8 61 5.5 NNE 15 22 8 12 1013.3 1013.2 0.0
04/04:30pm 28.8 29.7 20.8 62 5.3 NNE 17 24 9 13 1013.2 1013.1 0.0
04/04:00pm 28.7 29.8 22.0 67 4.5 NNE 19 22 10 12 1013.4 1013.3 0.0
04/03:30pm 29.1 30.9 22.6 68 4.4 N 17 22 9 12 1013.6 1013.5 0.0
04/03:00pm 28.5 30.0 22.0 68 4.4 N 17 20 9 11 1014.0 1013.9 0.0
04/02:30pm 28.7 30.8 22.4 68 4.3 N 15 17 8 9 1014.3 1014.2 0.0
04/02:00pm 28.9 31.4 22.4 68 4.4 N 13 15 7 8 1014.8 1014.7 0.0
04/01:30pm 28.4 30.5 21.7 67 4.5 N 13 17 7 9 1015.4 1015.3 0.0
04/01:00pm 28.5 31.3 21.5 66 4.7 N 9 13 5 7 1015.8 1015.7 0.0
04/12:30pm 28.4 31.4 21.2 65 4.8 NNE 7 13 4 7 1016.3 1016.2 0.0
04/12:00pm 29.3 32.1 21.5 63 5.2 NE 9 13 5 7 1016.9 1016.8 0.0
04/11:30am 29.0 31.8 21.5 64 5.0 NE 9 13 5 7 1017.3 1017.2 0.0
04/11:00am 28.6 30.8 20.3 60 5.5 NE 9 15 5 8 1017.6 1017.5 0.0
04/10:30am 28.4 30.1 20.2 61 5.4 ENE 11 17 6 9 1017.8 1017.7 0.0
04/10:00am 28.7 30.5 19.6 58 5.9 ENE 9 15 5 8 1017.9 1017.8 0.0
04/09:30am 28.0 30.0 20.0 61 5.2 NE 9 17 5 9 1017.8 1017.7 0.0
04/09:00am 28.1 29.9 19.6 60 5.5 ENE 9 15 5 8 1017.6 1017.5 0.0
04/08:30am 27.9 30.0 19.4 60 5.5 ENE 7 13 4 7 1017.2 1017.1 0.0
04/08:00am 27.4 29.4 20.0 64 4.8 ENE 9 13 5 7 1017.1 1017.0 0.0
04/07:30am 26.8 29.1 19.9 66 4.5 NE 7 11 4 6 1016.7 1016.6 0.0
04/07:00am 26.4 28.6 20.5 70 3.9 NE 9 13 5 7 1016.2 1016.1 0.0
04/06:30am 26.2 27.9 21.0 73 3.4 NE 13 19 7 10 1016.1 1016.0 0.0
04/06:00am 26.3 28.1 21.1 73 3.4 ENE 13 19 7 10 1015.8 1015.7 0.0
04/05:30am 26.5 28.4 21.3 73 3.4 NE 13 20 7 11 1015.4 1015.3 0.0
04/05:00am 25.3 28.3 21.2 78 2.7 NE 7 13 4 7 1015.1 1015.0 0.0
04/04:30am 23.2 27.0 20.2 83 1.9 CALM 0 2 0 1 1014.9 1014.8 0.0
04/04:00am 23.3 27.1 20.2 83 2.0 CALM 0 4 0 2 1014.8 1014.7 0.0
04/03:30am 23.4 27.3 20.3 83 2.0 CALM 0 0 0 0 1015.0 1014.9 0.0
04/03:00am 23.6 27.6 20.5 83 2.0 CALM 0 2 0 1 1015.1 1015.0 0.0
04/02:30am 24.2 28.0 20.9 82 2.2 N 2 4 1 2 1015.2 1015.1 0.0
04/02:00am 25.3 29.1 21.0 77 2.8 NNW 2 6 1 3 1015.4 1015.3 0.0
04/01:30am 24.8 28.8 21.3 81 2.3 NNW 2 4 1 2 1015.7 1015.6 0.0
04/01:00am 25.5 29.6 21.6 79 2.6 NW 2 6 1 3 1015.9 1015.8 0.0
04/12:30am 26.6 29.9 21.8 75 3.2 NW 7 11 4 6 1016.0 1015.9 0.0
04/12:00am 26.6 29.3 22.2 77 3.0 NW 11 15 6 8 1016.0 1015.9 0.0
 
Date/Time
CST
Tmp

°C
App
Tmp
°C
Dew
Point
°C
Rel
Hum
%
Delta-T

°C
Wind Press
QNH
hPa
Press
MSL
hPa
Rain
since
9 am
mm
Dir
 
Spd
km/h
Gust
km/h
Spd
kts
Gust
kts
03/11:30pm 26.3 29.9 22.4 79 2.6 W 7 15 4 8 1016.0 1015.9 0.0
03/11:00pm 26.6 29.6 22.7 79 2.6 WNW 11 17 6 9 1015.9 1015.8 0.0
03/10:30pm 26.7 29.5 23.0 80 2.5 WNW 13 17 7 9 1015.9 1015.8 0.0
03/10:00pm 26.7 29.2 23.2 81 2.4 NW 15 19 8 10 1015.8 1015.7 0.0
03/09:30pm 26.9 29.8 23.2 80 2.5 NW 13 17 7 9 1015.6 1015.5 0.0
03/09:00pm 27.0 29.7 22.8 78 2.8 NW 13 17 7 9 1015.4 1015.3 0.0
03/08:30pm 27.1 29.6 22.5 76 3.1 NW 13 17 7 9 1015.1 1015.0 0.0
03/08:00pm 27.3 29.8 21.8 72 3.7 NW 11 13 6 7 1014.9 1014.8 0.0
03/07:30pm 27.4 30.3 21.7 71 3.8 WNW 9 13 5 7 1014.6 1014.5 0.0
03/07:00pm 27.1 30.4 21.4 71 3.8 W 6 9 3 5 1014.2 1014.1 0.0
03/06:30pm 27.7 31.0 21.5 69 4.1 W 6 9 3 5 1013.9 1013.8 0.0
03/06:00pm 28.6 31.7 21.4 65 4.8 W 7 13 4 7 1013.7 1013.6 0.0
03/05:30pm 29.1 31.6 21.1 62 5.3 W 9 15 5 8 1013.6 1013.5 0.0
03/05:00pm 29.2 31.8 21.9 64 4.9 WNW 11 17 6 9 1013.3 1013.2 0.0
03/04:30pm 29.3 31.8 22.5 67 4.6 WNW 13 20 7 11 1013.1 1013.0 0.0
03/04:00pm 29.7 31.4 21.6 61 5.4 WNW 15 20 8 11 1013.3 1013.2 0.0
03/03:30pm 29.7 31.4 22.4 65 5.0 WNW 17 22 9 12 1013.5 1013.4 0.0
03/03:00pm 29.5 31.9 23.0 68 4.4 WNW 15 19 8 10 1013.9 1013.8 0.0
03/02:30pm 29.1 31.8 22.8 69 4.3 NW 13 19 7 10 1014.1 1014.0 0.0
03/02:00pm 29.3 32.4 22.8 68 4.4 NW 11 19 6 10 1014.4 1014.3 0.0
03/01:30pm 29.2 31.7 22.4 66 4.6 NNW 13 19 7 10 1014.9 1014.8 0.0
03/01:00pm 29.3 32.7 23.3 70 4.1 NW 11 17 6 9 1015.3 1015.2 0.0
03/12:30pm 29.2 32.3 22.9 69 4.3 NW 11 17 6 9 1015.8 1015.7 0.0
03/12:00pm 28.9 32.2 22.6 69 4.3 NNW 9 13 5 7 1016.3 1016.2 0.0
03/11:30am 28.6 32.1 22.8 71 3.9 N 9 13 5 7 1016.7 1016.6 0.0
03/11:00am 28.4 31.9 22.9 72 3.7 N 9 11 5 6 1017.2 1017.1 0.0
03/10:30am 28.3 31.9 23.0 73 3.6 NNE 9 13 5 7 1017.4 1017.3 0.0
03/10:00am 28.0 31.5 21.8 69 4.2 N 6 7 3 4 1017.4 1017.3 0.0
03/09:30am 27.6 31.2 22.1 72 3.7 NNW 6 6 3 3 1017.2 1017.1 0.0
03/09:00am 27.4 31.4 22.1 73 3.6 WNW 4 6 2 3 1017.1 1017.0 0.0
03/08:30am 27.1 31.9 22.1 74 3.4 CALM 0 0 0 0 1016.7 1016.6 0.0
03/08:00am 26.3 31.7 23.2 83 2.1 CALM 0 0 0 0 1016.8 1016.7 0.0
03/07:30am 23.3 27.1 21.6 90 1.1 SSW 4 4 2 2 1016.5 1016.4 0.0
03/07:00am 22.8 26.3 21.1 90 1.1 W 4 6 2 3 1016.2 1016.1 0.0
03/06:30am 23.0 26.5 21.1 89 1.2 W 4 6 2 3 1015.7 1015.6 0.0
03/06:00am 23.5 27.3 21.0 86 1.6 WNW 2 4 1 2 1015.0 1014.9 0.0
03/05:30am 24.4 28.6 20.9 81 2.3 CALM 0 4 0 2 1014.6 1014.5 0.0
03/05:00am 26.2 29.5 21.8 77 2.9 N 7 9 4 5 1014.4 1014.3 0.0
03/04:30am 26.3 29.3 21.9 77 2.9 NNW 9 11 5 6 1014.3 1014.2 0.0
03/04:00am 26.3 28.9 21.9 77 2.9 N 11 13 6 7 1014.2 1014.1 0.0
03/03:30am 26.3 29.3 21.9 77 2.9 N 9 13 5 7 1014.3 1014.2 0.0
03/03:00am 26.4 29.2 22.3 78 2.8 N 11 13 6 7 1014.5 1014.4 0.0
03/02:30am 25.9 29.8 22.6 82 2.2 NNW 6 13 3 7 1014.5 1014.4 0.0
03/02:00am 23.8 27.8 20.5 82 2.1 CALM 0 0 0 0 1014.5 1014.4 0.0
03/01:30am 24.0 27.5 20.3 80 2.4 W 2 4 1 2 1014.7 1014.6 0.0
03/01:00am 24.7 27.9 20.6 78 2.7 W 4 6 2 3 1014.8 1014.7 0.0
03/12:30am 25.1 28.3 20.4 75 3.1 WSW 4 6 2 3 1014.9 1014.8 0.0
03/12:00am 25.6 28.3 20.2 72 3.5 WSW 6 7 3 4 1015.0 1014.9 0.0
 
Date/Time
CST
Tmp

°C
App
Tmp
°C
Dew
Point
°C
Rel
Hum
%
Delta-T

°C
Wind Press
QNH
hPa
Press
MSL
hPa
Rain
since
9 am
mm
Dir
 
Spd
km/h
Gust
km/h
Spd
kts
Gust
kts
02/11:30pm 25.4 28.6 20.4 74 3.3 WSW 4 7 2 4 1015.1 1015.0 0.0
02/11:00pm 25.5 28.6 20.3 73 3.4 WSW 4 6 2 3 1015.0 1014.9 0.0
02/10:30pm 25.8 28.6 20.4 72 3.5 WSW 6 7 3 4 1014.9 1014.8 0.0
02/10:00pm 26.0 28.7 20.3 71 3.7 SW 6 9 3 5 1014.7 1014.6 0.0
02/09:30pm 26.3 29.2 20.6 71 3.7 W 6 9 3 5 1014.5 1014.4 0.0
02/09:00pm 26.2 29.2 20.1 69 4.0 W 4 7 2 4 1014.3 1014.2 0.0
02/08:30pm 26.3 29.1 19.7 67 4.3 WSW 4 9 2 5 1014.0 1013.9 0.0
02/08:00pm 26.4 29.1 19.5 66 4.5 WSW 4 7 2 4 1013.7 1013.6 0.0
02/07:30pm 26.7 29.6 19.8 66 4.5 SW 4 11 2 6 1013.4 1013.3 0.0
02/07:00pm 26.9 29.3 20.0 66 4.5 SW 7 13 4 7 1012.9 1012.8 0.0
02/06:30pm 27.4 29.9 20.2 65 4.7 SW 7 13 4 7 1012.7 1012.6 0.0
02/06:00pm 28.3 31.1 20.8 63 5.0 W 7 19 4 10 1012.4 1012.3 0.0
02/05:30pm 28.6 30.7 20.9 63 5.1 W 11 20 6 11 1012.3 1012.2 0.0
02/05:00pm 29.0 30.6 21.5 64 5.0 WNW 15 22 8 12 1012.1 1012.0 0.0
02/04:30pm 29.4 30.6 21.4 62 5.4 WNW 17 24 9 13 1012.1 1012.0 0.0
02/04:00pm 29.5 30.3 21.4 61 5.4 WNW 19 24 10 13 1012.2 1012.1 0.0
02/03:30pm 29.5 30.8 20.9 60 5.7 W 15 24 8 13 1012.4 1012.3 0.0
02/03:00pm 29.6 30.2 21.0 60 5.7 WNW 19 26 10 14 1012.8 1012.7 0.0
02/02:30pm 29.9 30.8 21.6 61 5.6 WNW 19 26 10 14 1013.3 1013.2 0.0
02/02:00pm 30.0 31.0 21.7 61 5.6 WNW 19 24 10 13 1013.9 1013.8 0.0
02/01:30pm 29.8 31.4 21.5 61 5.6 WNW 15 22 8 12 1014.2 1014.1 0.0
02/01:00pm 29.6 30.5 21.5 61 5.4 WNW 19 26 10 14 1014.6 1014.5 0.0
02/12:30pm 29.4 30.6 22.1 65 4.9 WNW 19 26 10 14 1015.3 1015.2 0.0
02/12:00pm 29.4 31.1 21.6 63 5.2 WNW 15 22 8 12 1015.8 1015.7 0.0
02/11:30am 28.8 31.0 21.8 66 4.7 NW 13 17 7 9 1016.3 1016.2 0.0
02/11:00am 28.9 32.0 22.2 67 4.5 NNW 9 13 5 7 1016.7 1016.6 0.0
02/10:30am 28.1 31.1 21.9 69 4.2 N 9 11 5 6 1017.0 1016.9 0.0
02/10:00am 27.6 30.9 21.9 71 3.8 N 7 9 4 5 1017.0 1016.9 0.0
02/09:30am 28.1 31.3 21.6 68 4.3 NW 7 9 4 5 1016.8 1016.7 0.0
02/09:00am 27.8 31.3 21.1 67 4.4 SW 4 9 2 5 1016.6 1016.5 0.0
02/08:30am 27.1 30.9 21.6 72 3.7 SSE 4 6 2 3 1016.4 1016.3 0.0
02/08:00am 25.3 29.3 22.0 82 2.2 SSE 4 6 2 3 1016.0 1015.9 0.0
02/07:30am 23.3 26.7 21.6 90 1.1 SSE 6 7 3 4 1015.7 1015.6 0.0
02/07:00am 22.6 25.6 20.9 90 1.1 S 6 7 3 4 1015.2 1015.1 0.0
02/06:30am 22.6 25.5 20.7 89 1.2 S 6 6 3 3 1014.7 1014.6 0.0
02/06:00am 22.8 25.8 20.9 89 1.2 S 6 7 3 4 1014.3 1014.2 0.0
02/05:30am 22.9 26.2 20.8 88 1.4 S 4 6 2 3 1014.1 1014.0 0.0
02/05:00am 23.1 26.5 21.0 88 1.4 SSW 4 6 2 3 1013.9 1013.8 0.0
02/04:30am 23.4 26.8 20.9 86 1.6 SW 4 6 2 3 1013.8 1013.7 0.0
02/04:00am 23.9 27.3 21.0 84 1.9 SW 4 6 2 3 1014.1 1014.0 0.0
02/03:30am 24.2 27.6 20.9 82 2.2 SW 4 4 2 2 1013.9 1013.8 0.0
02/03:00am 24.7 28.3 21.2 81 2.3 WSW 4 9 2 5 1013.8 1013.7 0.0
02/02:30am 25.0 28.9 21.1 79 2.6 WSW 2 6 1 3 1014.0 1013.9 0.0
02/02:00am 25.3 28.9 21.2 78 2.7 WSW 4 7 2 4 1013.9 1013.8 0.0
02/01:30am 25.3 28.5 21.2 78 2.7 WSW 6 9 3 5 1014.1 1014.0 0.0
02/01:00am 25.5 29.2 21.4 78 2.7 WSW 4 7 2 4 1014.4 1014.3 0.0
02/12:30am 25.6 29.3 21.5 78 2.7 WSW 4 9 2 5 1014.4 1014.3 0.0
02/12:00am 25.8 29.0 21.2 76 3.0 WSW 6 9 3 5 1014.5 1014.4 0.0
 
Date/Time
CST
Tmp

°C
App
Tmp
°C
Dew
Point
°C
Rel
Hum
%
Delta-T

°C
Wind Press
QNH
hPa
Press
MSL
hPa
Rain
since
9 am
mm
Dir
 
Spd
km/h
Gust
km/h
Spd
kts
Gust
kts
01/11:30pm 26.0 29.2 21.2 75 3.2 WSW 6 11 3 6 1014.4 1014.3 0.0
01/11:00pm 26.1 29.1 21.3 75 3.2 WSW 7 13 4 7 1014.4 1014.3 0.0
01/10:30pm 26.1 29.1 21.3 75 3.2 W 7 13 4 7 1014.2 1014.1 0.0
01/10:00pm 26.1 29.2 21.5 76 3.1 WSW 7 13 4 7 1014.1 1014.0 0.0
01/09:30pm 26.1 29.2 21.5 76 3.1 WSW 7 15 4 8 1014.1 1014.0 0.0
01/09:00pm 26.3 29.4 21.5 75 3.2 WSW 7 15 4 8 1013.9 1013.8 0.0
01/08:30pm 26.3 29.3 21.3 74 3.3 WSW 7 13 4 7 1013.5 1013.4 0.0
01/08:00pm 26.3 29.4 21.5 75 3.2 WSW 7 15 4 8 1013.0 1012.9 0.0

Latest Capital City Observations: Canberra | Sydney | Melbourne | Brisbane | Adelaide | Perth | Hobart | Darwin

Other Formats:

Comma delimited format used in spreadsheet applications
http://www.bom.gov.au/fwo/IDD60901/IDD60901.99510.axf

JavaScript Object Notation format (JSON) in row-major order
http://www.bom.gov.au/fwo/IDD60901/IDD60901.99510.json